Connexion

Connexion à votre compte

Identifiant
Mot de passe
Maintenir la connexion active sur ce site
Création de compte
Profil utilisateur
(optionnel)
Annuler

Nous contacter

 Téléphone : +33 (0)4 79 54 41 81

Coordonnées détaillées et accès : cliquez ici

 
LFLB °C
    Ferienhaus Ostsee
[source: ADDS]
METAR
LFLB 240630Z AUTO 07001KT 4500 BR NSC M01/M02 Q1026 BECMG 8000 NSW =
TAF LFLB 240500Z 2406/2506 VRB02KT 8000 NSC TEMPO 2406/2408 4000 BR PROB30 TEMPO 2406/2408 0800 BCFG BECMG 2410/2412 9999 BKN080 PROB40 TEMPO 2502/2506 4000 BR
TAF
TAF LFLB 240500Z 2406/2506 VRB02KT 8000 NSC TEMPO 2406/2408 4000 BR PROB30 TEMPO 2406/2408 0800 BCFG BECMG 2410/2412 9999 BKN080 PROB40 TEMPO 2502/2506 4000 BR =
SR / SS: 07:06 / 16:30 UTC (Lever/Coucher du soleil le 2020-01-24)
JSN Boot template designed by JoomlaShine.com